createdAt,value
2022-08-17T00:01:31.451Z,62.35
2022-08-17T00:04:19.324Z,62.44
2022-08-17T00:06:46.252Z,62.40
2022-08-17T00:09:18.697Z,62.46
2022-08-17T00:12:40.367Z,62.30
2022-08-17T00:14:36.146Z,62.32
2022-08-17T00:17:04.658Z,62.45
2022-08-17T00:19:32.718Z,62.51
2022-08-17T00:22:34.963Z,62.64
2022-08-17T00:24:49.786Z,62.79
2022-08-17T00:27:16.502Z,61.81
2022-08-17T00:29:45.470Z,61.38
2022-08-17T00:33:11.855Z,61.43
2022-08-17T00:35:00.128Z,61.44
2022-08-17T00:37:26.812Z,61.84
2022-08-17T00:39:53.407Z,61.90
2022-08-17T00:42:20.192Z,62.04
2022-08-17T00:44:46.928Z,62.25
2022-08-17T00:47:13.508Z,62.28
2022-08-17T00:49:40.302Z,62.61
2022-08-17T00:52:15.493Z,62.92
2022-08-17T00:54:44.621Z,62.80
2022-08-17T00:57:15.663Z,62.96
2022-08-17T00:59:47.155Z,62.88
2022-08-17T01:02:29.449Z,62.12
2022-08-17T01:05:01.189Z,61.44
2022-08-17T01:07:27.800Z,61.70
2022-08-17T01:09:54.632Z,61.69
2022-08-17T01:12:21.546Z,61.63
2022-08-17T01:14:48.585Z,61.92
2022-08-17T01:17:15.349Z,61.98
2022-08-17T01:19:42.788Z,62.12
2022-08-17T01:22:09.383Z,61.93
2022-08-17T01:24:38.677Z,62.05
2022-08-17T01:27:10.491Z,62.30
2022-08-17T01:29:39.000Z,62.13
2022-08-17T01:32:07.764Z,62.56
2022-08-17T01:34:42.984Z,62.83
2022-08-17T01:37:12.103Z,62.99
2022-08-17T01:39:44.709Z,63.37
2022-08-17T01:42:17.590Z,63.53
2022-08-17T01:44:44.467Z,63.42
2022-08-17T01:47:11.158Z,63.29
2022-08-17T01:49:37.794Z,63.19
2022-08-17T01:52:09.885Z,63.12
2022-08-17T01:54:38.262Z,62.54
2022-08-17T01:57:05.068Z,62.11
2022-08-17T01:59:31.686Z,62.46
2022-08-17T02:01:58.441Z,62.66
2022-08-17T02:04:25.203Z,62.80
2022-08-17T02:06:53.162Z,63.11
2022-08-17T02:09:25.155Z,63.29
2022-08-17T02:11:54.278Z,63.19
2022-08-17T02:14:21.153Z,63.25
2022-08-17T02:16:47.769Z,63.85
2022-08-17T02:19:15.873Z,63.74
2022-08-17T02:21:45.930Z,64.08
2022-08-17T02:24:17.050Z,64.16
2022-08-17T02:26:43.983Z,64.09
2022-08-17T02:29:10.564Z,64.08
2022-08-17T02:31:37.881Z,64.00
2022-08-17T02:34:05.433Z,64.12
2022-08-17T02:36:34.209Z,64.10
2022-08-17T02:39:06.582Z,64.15
2022-08-17T02:41:33.746Z,63.56
2022-08-17T02:44:00.418Z,63.39
2022-08-17T02:46:28.483Z,63.79
2022-08-17T02:48:55.164Z,63.77
2022-08-17T02:51:21.773Z,62.85
2022-08-17T02:53:48.345Z,62.85
2022-08-17T02:56:15.054Z,63.90
2022-08-17T02:58:41.677Z,63.90
2022-08-17T03:01:10.177Z,64.01
2022-08-17T03:03:37.653Z,64.05
2022-08-17T03:06:04.898Z,64.29
2022-08-17T03:08:31.787Z,64.31
2022-08-17T03:10:58.394Z,64.39
2022-08-17T03:13:25.009Z,65.00
2022-08-17T03:15:51.779Z,64.88
2022-08-17T03:18:25.565Z,65.01
2022-08-17T03:20:58.335Z,65.04
2022-08-17T03:23:26.322Z,65.45
2022-08-17T03:25:54.625Z,65.80
2022-08-17T03:28:22.102Z,65.92
2022-08-17T03:30:49.171Z,65.93
2022-08-17T03:33:17.006Z,66.02
2022-08-17T03:35:44.114Z,65.81
2022-08-17T03:38:11.966Z,65.81
2022-08-17T03:40:56.908Z,65.81
2022-08-17T03:43:28.465Z,65.81
2022-08-17T03:46:27.962Z,65.81
2022-08-17T03:49:15.429Z,65.81
2022-08-17T03:52:00.881Z,65.81
2022-08-17T03:54:46.012Z,100.00
2022-08-17T03:57:13.096Z,100.00
2022-08-17T03:59:40.576Z,100.00
2022-08-17T04:02:18.261Z,100.00
2022-08-17T04:04:44.992Z,100.00
2022-08-17T04:07:11.759Z,100.00
2022-08-17T04:09:38.364Z,100.00
2022-08-17T04:12:05.470Z,100.00
2022-08-17T04:14:47.744Z,100.00
2022-08-17T04:17:20.033Z,100.00
2022-08-17T04:19:46.952Z,100.00
2022-08-17T04:22:32.135Z,100.00
2022-08-17T04:25:14.023Z,100.00
2022-08-17T04:27:40.606Z,100.00
2022-08-17T04:30:08.013Z,100.00
2022-08-17T04:33:05.486Z,65.65
2022-08-17T04:35:37.724Z,66.85
2022-08-17T04:38:04.946Z,67.01
2022-08-17T04:40:50.054Z,67.22
2022-08-17T04:43:20.417Z,67.18
2022-08-17T04:46:04.943Z,67.48
2022-08-17T04:48:36.617Z,67.26
2022-08-17T04:51:06.910Z,67.31
2022-08-17T04:53:33.642Z,66.98
2022-08-17T04:56:00.326Z,66.80
2022-08-17T04:58:27.165Z,66.96
2022-08-17T05:00:53.827Z,66.47
2022-08-17T05:03:20.555Z,66.17
2022-08-17T05:05:49.963Z,66.00
2022-08-17T05:08:18.637Z,65.62
2022-08-17T05:10:45.950Z,65.65
2022-08-17T05:13:16.318Z,65.33
2022-08-17T05:15:45.100Z,65.13
2022-08-17T05:18:14.390Z,64.84
2022-08-17T05:20:41.763Z,64.99
2022-08-17T05:23:11.618Z,64.58
2022-08-17T05:25:47.441Z,64.19
2022-08-17T05:28:15.482Z,64.25
2022-08-17T05:30:43.410Z,64.59
2022-08-17T05:33:16.675Z,64.64
2022-08-17T05:35:47.058Z,64.34
2022-08-17T05:38:15.053Z,63.91
2022-08-17T05:40:43.339Z,63.97
2022-08-17T05:43:11.379Z,63.85
2022-08-17T05:46:00.999Z,63.72
2022-08-17T05:48:35.410Z,63.52
2022-08-17T05:51:21.850Z,63.65
2022-08-17T05:53:54.385Z,64.38
2022-08-17T05:56:58.806Z,64.62
2022-08-17T05:59:44.164Z,64.28
2022-08-17T06:02:28.793Z,64.13
2022-08-17T06:04:58.091Z,64.30
2022-08-17T06:07:43.847Z,64.26
2022-08-17T06:10:34.238Z,64.29
2022-08-17T06:13:11.362Z,64.11
2022-08-17T06:15:56.107Z,64.18
2022-08-17T06:18:25.957Z,64.46
2022-08-17T06:21:04.421Z,64.58
2022-08-17T06:23:35.482Z,64.80
2022-08-17T06:26:14.829Z,65.21
2022-08-17T06:28:51.906Z,65.25
2022-08-17T06:31:22.975Z,62.61
2022-08-17T06:33:50.216Z,60.95
2022-08-17T06:36:35.060Z,60.36
2022-08-17T06:39:23.058Z,59.85
2022-08-17T06:43:02.358Z,59.33
2022-08-17T06:45:05.863Z,59.71
2022-08-17T06:48:05.788Z,59.56
2022-08-17T06:50:39.962Z,59.42
2022-08-17T06:53:09.905Z,57.00
2022-08-17T06:55:45.211Z,55.64
2022-08-17T06:58:16.021Z,54.43
2022-08-17T07:00:45.894Z,54.84
2022-08-17T07:03:18.905Z,54.53
2022-08-17T07:05:53.069Z,53.92
2022-08-17T07:08:59.148Z,53.63
2022-08-17T07:11:31.451Z,53.13
2022-08-17T07:14:04.817Z,53.25
2022-08-17T07:16:38.732Z,52.38
2022-08-17T07:19:07.358Z,52.06
2022-08-17T07:21:43.580Z,50.20
2022-08-17T07:24:30.421Z,48.93
2022-08-17T07:27:35.663Z,0.00
2022-08-17T07:30:10.813Z,48.80
2022-08-17T07:32:54.601Z,48.64
2022-08-17T07:35:31.262Z,48.70
2022-08-17T07:38:25.415Z,48.11
2022-08-17T07:40:57.791Z,100.00
2022-08-17T07:43:26.124Z,100.00
2022-08-17T07:46:30.379Z,100.00
2022-08-17T07:49:37.533Z,100.00
2022-08-17T07:52:24.233Z,48.06
2022-08-17T07:54:56.813Z,48.63
2022-08-17T07:57:31.383Z,48.87
2022-08-17T08:00:01.294Z,49.27
2022-08-17T08:02:33.458Z,49.55
2022-08-17T08:05:02.743Z,49.90
2022-08-17T08:07:38.849Z,50.86
2022-08-17T08:10:13.977Z,51.16
2022-08-17T08:13:04.248Z,48.91
2022-08-17T08:15:37.838Z,47.88
2022-08-17T08:18:06.554Z,49.16
2022-08-17T08:20:51.486Z,47.65
2022-08-17T08:23:42.718Z,47.21
2022-08-17T08:26:30.990Z,45.92
2022-08-17T08:29:10.282Z,46.54
2022-08-17T08:31:48.740Z,45.50
2022-08-17T08:35:00.854Z,44.32
2022-08-17T08:37:20.673Z,44.23
2022-08-17T08:40:04.564Z,45.00
2022-08-17T08:42:52.827Z,43.77
2022-08-17T08:45:24.170Z,42.06
2022-08-17T08:48:46.231Z,41.69
2022-08-17T08:51:10.816Z,41.83
2022-08-17T08:53:46.432Z,40.36
2022-08-17T08:56:36.446Z,39.91
2022-08-17T08:59:32.920Z,39.99
2022-08-17T09:02:16.492Z,39.64
2022-08-17T09:05:15.554Z,100.00
2022-08-17T09:08:21.019Z,100.00
2022-08-17T09:11:05.977Z,100.00
2022-08-17T09:13:59.894Z,100.00
2022-08-17T09:16:36.084Z,100.00
2022-08-17T09:19:12.380Z,100.00
2022-08-17T09:21:49.195Z,100.00
2022-08-17T09:24:21.212Z,100.00
2022-08-17T09:27:09.468Z,100.00
2022-08-17T09:29:40.044Z,100.00
2022-08-17T09:32:23.722Z,100.00
2022-08-17T09:34:57.093Z,100.00
2022-08-17T09:37:38.202Z,100.00
2022-08-17T09:40:24.841Z,100.00
2022-08-17T09:43:01.067Z,100.00
2022-08-17T09:45:50.679Z,100.00
2022-08-17T09:48:21.537Z,100.00
2022-08-17T09:51:07.873Z,100.00
2022-08-17T09:53:38.870Z,32.84
2022-08-17T09:56:31.648Z,33.19
2022-08-17T09:59:20.142Z,33.37
2022-08-17T10:02:20.909Z,100.00
2022-08-17T10:04:56.994Z,100.00
2022-08-17T10:07:34.327Z,100.00
2022-08-17T10:10:13.943Z,100.00
2022-08-17T10:12:47.852Z,100.00
2022-08-17T10:15:31.519Z,100.00
2022-08-17T10:18:15.647Z,100.00
2022-08-17T10:21:26.981Z,100.00
2022-08-17T10:25:21.248Z,100.00
2022-08-17T10:27:40.019Z,100.00
2022-08-17T10:30:08.825Z,100.00
2022-08-17T10:32:41.183Z,100.00
2022-08-17T10:35:33.952Z,100.00
2022-08-17T10:38:24.749Z,100.00
2022-08-17T10:40:59.094Z,100.00
2022-08-17T10:43:38.470Z,100.00
2022-08-17T10:46:31.526Z,100.00
2022-08-17T10:49:16.963Z,100.00
2022-08-17T10:51:57.701Z,100.00
2022-08-17T10:54:24.286Z,100.00
2022-08-17T10:56:53.514Z,100.00
2022-08-17T10:59:38.609Z,100.00
2022-08-17T11:02:26.987Z,100.00
2022-08-17T11:05:20.562Z,100.00
2022-08-17T11:08:12.667Z,100.00
2022-08-17T11:10:52.358Z,100.00
2022-08-17T11:13:47.611Z,100.00
2022-08-17T11:16:36.005Z,100.00
2022-08-17T11:19:11.709Z,100.00
2022-08-17T11:21:44.140Z,100.00
2022-08-17T11:24:13.377Z,100.00
2022-08-17T11:26:46.744Z,100.00
2022-08-17T11:29:24.893Z,100.00
2022-08-17T11:32:02.189Z,100.00
2022-08-17T11:34:30.953Z,100.00
2022-08-17T11:37:30.091Z,100.00
2022-08-17T11:40:21.680Z,100.00
2022-08-17T11:42:51.295Z,100.00
2022-08-17T11:45:32.579Z,100.00
2022-08-17T11:48:56.891Z,100.00
2022-08-17T11:51:34.030Z,100.00
2022-08-17T11:54:31.260Z,100.00
2022-08-17T11:56:51.835Z,100.00
2022-08-17T11:59:32.661Z,100.00
2022-08-17T12:02:04.503Z,100.00
2022-08-17T12:04:33.903Z,100.00
2022-08-17T12:07:08.456Z,100.00
2022-08-17T12:09:39.867Z,100.00
2022-08-17T12:12:14.537Z,100.00
2022-08-17T12:17:40.767Z,100.00
2022-08-17T12:20:18.600Z,100.00
2022-08-17T12:22:48.197Z,100.00
2022-08-17T12:25:19.292Z,100.00
2022-08-17T12:28:06.605Z,100.00
2022-08-17T12:30:34.349Z,100.00
2022-08-17T12:33:00.907Z,100.00
2022-08-17T12:35:35.874Z,100.00
2022-08-17T12:38:03.724Z,100.00
2022-08-17T12:40:32.449Z,100.00
2022-08-17T12:43:01.820Z,100.00
2022-08-17T12:45:32.791Z,100.00
2022-08-17T12:48:08.453Z,100.00
2022-08-17T12:50:36.097Z,29.36
2022-08-17T12:53:02.916Z,29.40
2022-08-17T12:55:32.639Z,29.40
2022-08-17T12:58:02.031Z,29.27
2022-08-17T13:00:38.166Z,29.40
2022-08-17T13:03:06.014Z,29.52
2022-08-17T13:05:35.692Z,29.13
2022-08-17T13:08:13.901Z,30.54
2022-08-17T13:10:40.523Z,30.03
2022-08-17T13:13:21.338Z,30.15
2022-08-17T13:16:09.779Z,31.02
2022-08-17T13:18:36.329Z,30.66
2022-08-17T13:21:03.020Z,29.84
2022-08-17T13:23:32.342Z,30.14
2022-08-17T13:26:07.877Z,29.55
2022-08-17T13:28:36.734Z,29.90
2022-08-17T13:31:27.950Z,30.00
2022-08-17T13:34:16.949Z,30.24
2022-08-17T13:36:46.741Z,29.42
2022-08-17T13:39:24.111Z,28.97
2022-08-17T13:41:54.001Z,29.13
2022-08-17T13:44:31.287Z,100.00
2022-08-17T13:46:59.626Z,100.00
2022-08-17T13:49:49.028Z,100.00
2022-08-17T13:52:39.189Z,100.00
2022-08-17T13:55:26.058Z,100.00
2022-08-17T13:58:04.107Z,100.00
2022-08-17T14:00:36.246Z,100.00
2022-08-17T14:03:04.327Z,100.00
2022-08-17T14:05:31.568Z,29.13
2022-08-17T14:08:02.384Z,30.65
2022-08-17T14:10:36.197Z,30.07
2022-08-17T14:13:03.381Z,30.56
2022-08-17T14:15:55.024Z,30.15
2022-08-17T14:18:55.392Z,31.06
2022-08-17T14:21:08.417Z,31.91
2022-08-17T14:23:35.473Z,31.57
2022-08-17T14:26:02.323Z,31.22
2022-08-17T14:28:28.960Z,32.55
2022-08-17T14:30:55.595Z,32.40
2022-08-17T14:33:22.759Z,32.24
2022-08-17T14:35:53.615Z,32.41
2022-08-17T14:38:20.633Z,30.90
2022-08-17T14:40:48.078Z,31.94
2022-08-17T14:43:15.916Z,31.85
2022-08-17T14:45:43.441Z,32.66
2022-08-17T14:48:10.327Z,31.68
2022-08-17T14:50:39.387Z,30.99
2022-08-17T14:53:07.511Z,29.93
2022-08-17T14:55:35.004Z,30.00
2022-08-17T14:58:01.724Z,30.45
2022-08-17T15:00:28.668Z,30.94
2022-08-17T15:02:58.476Z,30.65
2022-08-17T15:05:30.561Z,30.34
2022-08-17T15:07:57.929Z,30.42
2022-08-17T15:10:25.853Z,29.85
2022-08-17T15:12:52.732Z,30.57
2022-08-17T15:15:19.668Z,31.09
2022-08-17T15:17:46.520Z,30.60
2022-08-17T15:20:16.817Z,30.37
2022-08-17T15:22:44.523Z,31.80
2022-08-17T15:25:11.972Z,32.16
2022-08-17T15:27:38.699Z,30.87
2022-08-17T15:30:07.318Z,30.25
2022-08-17T15:32:37.883Z,31.06
2022-08-17T15:35:07.750Z,30.07
2022-08-17T15:37:34.321Z,30.53
2022-08-17T15:40:01.301Z,29.92
2022-08-17T15:42:29.307Z,30.10
2022-08-17T15:44:55.910Z,31.86
2022-08-17T15:47:23.226Z,33.16
2022-08-17T15:49:50.868Z,33.38
2022-08-17T15:52:25.466Z,33.46
2022-08-17T15:54:58.300Z,32.88
2022-08-17T15:57:25.829Z,32.88
2022-08-17T15:59:58.494Z,32.64
2022-08-17T16:03:45.087Z,33.64
2022-08-17T16:05:20.920Z,33.31
2022-08-17T16:07:48.575Z,34.65
2022-08-17T16:10:19.075Z,35.26
2022-08-17T16:12:47.637Z,35.77
2022-08-17T16:15:14.783Z,36.68
2022-08-17T16:17:41.630Z,38.90
2022-08-17T16:20:20.290Z,36.98
2022-08-17T16:22:48.824Z,37.80
2022-08-17T16:25:47.127Z,37.87
2022-08-17T16:28:16.660Z,37.26
2022-08-17T16:30:43.997Z,36.90
2022-08-17T16:33:11.642Z,36.53
2022-08-17T16:35:38.695Z,37.56
2022-08-17T16:38:05.424Z,36.92
2022-08-17T16:40:35.954Z,36.07
2022-08-17T16:43:03.645Z,36.43
2022-08-17T16:45:36.466Z,35.72
2022-08-17T16:48:03.667Z,35.89
2022-08-17T16:50:31.797Z,35.77
2022-08-17T16:53:10.744Z,36.21
2022-08-17T16:55:38.037Z,35.77
2022-08-17T16:58:06.282Z,35.91
2022-08-17T17:00:33.672Z,35.72
2022-08-17T17:03:19.615Z,35.84
2022-08-17T17:06:13.507Z,37.56
2022-08-17T17:08:46.679Z,37.46
2022-08-17T17:11:16.146Z,37.37
2022-08-17T17:13:51.142Z,38.96
2022-08-17T17:16:21.867Z,37.60
2022-08-17T17:19:11.910Z,39.16
2022-08-17T17:22:15.218Z,38.64
2022-08-17T17:24:53.384Z,40.05
2022-08-17T17:27:38.307Z,40.45
2022-08-17T17:30:15.109Z,40.38
2022-08-17T17:32:48.313Z,42.04
2022-08-17T17:35:34.675Z,41.85
2022-08-17T17:38:08.111Z,43.45
2022-08-17T17:40:44.432Z,43.96
2022-08-17T17:43:37.565Z,44.84
2022-08-17T17:46:27.599Z,47.47
2022-08-17T17:48:56.804Z,48.11
2022-08-17T17:52:06.835Z,48.37
2022-08-17T17:54:55.428Z,100.00
2022-08-17T17:57:33.894Z,100.00
2022-08-17T18:00:16.514Z,100.00
2022-08-17T18:02:52.612Z,100.00
2022-08-17T18:05:19.587Z,100.00
2022-08-17T18:08:36.603Z,100.00
2022-08-17T18:11:25.091Z,100.00
2022-08-17T18:14:03.304Z,100.00
2022-08-17T18:16:32.900Z,100.00
2022-08-17T18:19:00.195Z,100.00
2022-08-17T18:21:39.712Z,100.00
2022-08-17T18:24:08.291Z,100.00
2022-08-17T18:26:35.225Z,100.00
2022-08-17T18:29:31.801Z,54.72
2022-08-17T18:32:18.011Z,54.43
2022-08-17T18:34:48.199Z,54.96
2022-08-17T18:37:30.818Z,54.66
2022-08-17T18:39:57.567Z,55.48
2022-08-17T18:42:29.207Z,55.44
2022-08-17T18:44:56.219Z,55.50
2022-08-17T18:47:25.344Z,55.57
2022-08-17T18:49:56.342Z,55.78
2022-08-17T18:52:29.452Z,56.71
2022-08-17T18:55:15.418Z,57.24
2022-08-17T18:57:45.408Z,57.94
2022-08-17T19:00:21.643Z,57.94
2022-08-17T19:02:52.275Z,57.71
2022-08-17T19:05:35.555Z,56.77
2022-08-17T19:08:19.865Z,55.52
2022-08-17T19:10:49.113Z,56.99
2022-08-17T19:13:24.174Z,56.91
2022-08-17T19:16:12.325Z,57.67
2022-08-17T19:19:01.019Z,58.37
2022-08-17T19:21:32.814Z,59.27
2022-08-17T19:24:10.222Z,58.60
2022-08-17T19:26:54.747Z,58.62
2022-08-17T19:29:35.004Z,58.88
2022-08-17T19:32:01.789Z,58.45
2022-08-17T19:34:33.934Z,58.98
2022-08-17T19:37:11.406Z,58.32
2022-08-17T19:39:53.033Z,57.89
2022-08-17T19:42:34.370Z,57.42
2022-08-17T19:45:07.643Z,57.48
2022-08-17T19:48:12.450Z,58.02
2022-08-17T19:50:56.180Z,58.25
2022-08-17T19:53:36.720Z,58.83
2022-08-17T19:56:31.648Z,59.10
2022-08-17T19:59:04.698Z,59.44
2022-08-17T20:01:37.004Z,58.92
2022-08-17T20:04:07.647Z,58.07
2022-08-17T20:06:37.497Z,57.79
2022-08-17T20:09:21.303Z,58.06
2022-08-17T20:11:57.224Z,57.60
2022-08-17T20:14:30.630Z,57.84
2022-08-17T20:17:01.930Z,57.87
2022-08-17T20:19:44.703Z,58.14
2022-08-17T20:22:18.410Z,58.35
2022-08-17T20:24:50.760Z,58.14
2022-08-17T20:27:22.319Z,58.67
2022-08-17T20:30:01.868Z,59.25
2022-08-17T20:32:55.548Z,58.88
2022-08-17T20:35:28.624Z,58.58
2022-08-17T20:38:08.019Z,57.90
2022-08-17T20:40:57.443Z,57.69
2022-08-17T20:43:33.070Z,58.04
2022-08-17T20:46:41.698Z,56.98
2022-08-17T20:49:11.295Z,55.25
2022-08-17T20:52:09.976Z,54.65
2022-08-17T20:54:49.847Z,54.16
2022-08-17T20:57:31.678Z,54.66
2022-08-17T21:00:14.347Z,53.95
2022-08-17T21:02:49.669Z,54.90
2022-08-17T21:05:37.185Z,54.99
2022-08-17T21:08:14.131Z,55.93
2022-08-17T21:10:41.735Z,56.05
2022-08-17T21:13:08.330Z,56.05
2022-08-17T21:15:52.610Z,56.32
2022-08-17T21:18:31.787Z,56.64
2022-08-17T21:21:14.071Z,57.47
2022-08-17T21:24:04.846Z,57.86
2022-08-17T21:26:50.170Z,57.36
2022-08-17T21:29:31.270Z,58.01
2022-08-17T21:31:59.634Z,57.97
2022-08-17T21:34:32.826Z,58.69
2022-08-17T21:37:29.591Z,58.40
2022-08-17T21:40:02.318Z,58.62
2022-08-17T21:42:32.239Z,58.86
2022-08-17T21:45:25.024Z,59.03
2022-08-17T21:48:12.745Z,58.91
2022-08-17T21:50:41.777Z,58.89
2022-08-17T21:53:13.727Z,58.67
2022-08-17T21:55:40.564Z,59.22
2022-08-17T21:58:22.475Z,59.37
2022-08-17T22:01:25.750Z,59.75
2022-08-17T22:04:07.875Z,59.53
2022-08-17T22:06:36.392Z,59.54
2022-08-17T22:09:07.817Z,59.47
2022-08-17T22:11:54.769Z,58.40
2022-08-17T22:14:52.506Z,58.55
2022-08-17T22:17:47.105Z,58.81
2022-08-17T22:20:17.778Z,58.57
2022-08-17T22:23:09.192Z,58.61
2022-08-17T22:25:57.005Z,58.65
2022-08-17T22:28:42.497Z,58.69
2022-08-17T22:31:14.434Z,59.11
2022-08-17T22:33:41.556Z,58.98
2022-08-17T22:36:12.589Z,58.95
2022-08-17T22:38:41.114Z,59.43
2022-08-17T22:41:34.605Z,59.80
2022-08-17T22:44:17.221Z,59.84
2022-08-17T22:46:58.989Z,59.70
2022-08-17T22:49:33.024Z,60.05
2022-08-17T22:52:06.979Z,60.23
2022-08-17T22:54:52.162Z,60.57
2022-08-17T22:57:38.891Z,60.60
2022-08-17T23:00:06.764Z,59.72
2022-08-17T23:02:34.807Z,60.30
2022-08-17T23:05:12.743Z,60.73
2022-08-17T23:07:40.420Z,60.62
2022-08-17T23:10:09.707Z,60.59
2022-08-17T23:12:39.902Z,60.86
2022-08-17T23:15:14.394Z,60.81
2022-08-17T23:17:42.070Z,60.40
2022-08-17T23:20:12.447Z,60.74
2022-08-17T23:22:52.506Z,60.88
2022-08-17T23:25:30.248Z,61.17
2022-08-17T23:28:01.227Z,61.41
2022-08-17T23:30:30.521Z,61.36
2022-08-17T23:33:02.111Z,61.99
2022-08-17T23:35:39.394Z,62.08
2022-08-17T23:38:10.731Z,62.26
2022-08-17T23:40:39.533Z,62.49
2022-08-17T23:43:23.479Z,62.70
2022-08-17T23:45:57.543Z,62.53
2022-08-17T23:48:32.589Z,62.55
2022-08-17T23:51:04.173Z,62.64
2022-08-17T23:53:34.052Z,62.68
2022-08-17T23:56:09.053Z,62.92
2022-08-17T23:58:38.527Z,63.24
